Weather History for KHRT - October, 2012

Change the Weather History Date:

Thursday, October 18, 2012

  Actual Average Record
Temperature  
Mean Temperature 72 °F -  
Max Temperature 78 °F 76 °F 84 °F (2006)
Min Temperature 64 °F 57 °F 42 °F (2001)
Cooling Degree Days 6    
Growing Degree Days 22 (Base 50)    
Moisture  
Dew Point 69 °F    
Average Humidity 91    
Maximum Humidity 100    
Minimum Humidity 77    
Precipitation  
Precipitation 0.02 in - - ()
Sea Level Pressure  
Sea Level Pressure 29.82 in    
Wind  
Wind Speed 9 mph (ESE)    
Max Wind Speed 16 mph    
Max Gust Speed 22 mph    
Visibility 9 miles    
Events Rain , Thunderstorm    
Averages and records for this station are not official NWS values.
T = Trace of Precipitation, MM = Missing Value Source: NWS Daily Summary

Daily Weather History Graph

Daily Weather History Graph

Search for Another Location

Airport or City:

Trip Planner

Search our weather history database for the weather conditions in past years. The results will help you decide how hot, cold, wet, or windy it might be!

Date:

Astronomy

Oct. 18, 2012 Rise Set
Actual Time 6:51 AM CDT 6:11 PM CDT
Civil Twilight 6:27 AM CDT 6:36 PM CDT
Nautical Twilight 5:58 AM CDT 7:04 PM CDT
Astronomical Twilight 5:31 AM CDT 7:31 PM CDT
Moon 10:18 AM CDT (10/18) 8:59 PM CDT (10/18)
Length of Visible Light 12h 09m
Length of Day
11h 20m
Waxing Crescent, 14% of the Moon is Illuminated
Oct 18
Waxing Crescent
Oct 21
First Quarter
Oct 29
Full
Nov 6
Last Quarter
Nov 13
New

Hourly Weather History & Observations

Time (CDT) Temp. Dew Point Humidity Pressure Visibility Wind Dir Wind Speed Gust Speed Precip Events Conditions
12:55 AM 73.0 °F 65.5 °F 77% 29.82 in 10.0 mi South 10.4 mph - N/A   Partly Cloudy
1:55 AM 72.7 °F 66.4 °F 81% 29.81 in 10.0 mi SSW 9.2 mph - N/A   Partly Cloudy
2:31 AM 73.4 °F 68.0 °F 83% 29.81 in 10.0 mi SSW 9.2 mph - N/A   Mostly Cloudy
2:55 AM 73.8 °F 68.4 °F 83% 29.80 in 10.0 mi SSW 9.2 mph - N/A   Overcast
3:05 AM 73.4 °F 68.0 °F 83% 29.80 in 10.0 mi South 8.1 mph - N/A   Overcast
3:06 AM 73.4 °F 68.0 °F 83% 29.80 in 10.0 mi South 9.2 mph - N/A   Overcast
3:07 AM 73.4 °F 68.0 °F 83% 29.80 in 10.0 mi South 9.2 mph - N/A   Overcast
3:19 AM 73.4 °F 68.0 °F 83% 29.79 in 10.0 mi SSW 11.5 mph - N/A   Mostly Cloudy
3:20 AM 73.4 °F 68.0 °F 83% 29.80 in 10.0 mi South 12.7 mph - N/A   Mostly Cloudy
3:33 AM 73.4 °F 69.8 °F 88% 29.80 in 10.0 mi South 10.4 mph - N/A   Mostly Cloudy
3:55 AM 74.7 °F 68.9 °F 82% 29.79 in 10.0 mi SSW 11.5 mph - N/A   Scattered Clouds
4:02 AM 75.2 °F 68.0 °F 78% 29.79 in 10.0 mi SSW 11.5 mph - N/A   Mostly Cloudy
4:16 AM 75.2 °F 69.8 °F 83% 29.80 in 10.0 mi SSW 10.4 mph - N/A   Mostly Cloudy
4:17 AM 75.2 °F 68.0 °F 78% 29.80 in 10.0 mi SSW 9.2 mph - N/A   Mostly Cloudy
4:27 AM 75.2 °F 68.0 °F 78% 29.79 in 10.0 mi SSW 12.7 mph - N/A   Mostly Cloudy
4:29 AM 75.2 °F 68.0 °F 78% 29.79 in 10.0 mi SSW 11.5 mph - N/A   Mostly Cloudy
4:34 AM 75.2 °F 68.0 °F 78% 29.78 in 10.0 mi South 11.5 mph - N/A   Mostly Cloudy
4:55 AM 75.6 °F 68.4 °F 78% 29.79 in 10.0 mi SSW 11.5 mph - N/A   Partly Cloudy
5:55 AM 75.9 °F 69.8 °F 81% 29.78 in 10.0 mi SSW 15.0 mph - N/A   Clear
6:55 AM 76.6 °F 70.9 °F 82% 29.79 in 10.0 mi SSW 16.1 mph - N/A   Partly Cloudy
7:55 AM 77.5 °F 72.1 °F 83% 29.79 in 10.0 mi SSW 15.0 mph 20.7 mph N/A   Mostly Cloudy
7:59 AM 77.0 °F 71.6 °F 83% 29.79 in 10.0 mi SSW 15.0 mph 20.7 mph N/A   Mostly Cloudy
8:03 AM 77.0 °F 71.6 °F 83% 29.79 in 10.0 mi SSW 13.8 mph 21.9 mph N/A   Mostly Cloudy
8:11 AM 77.0 °F 73.4 °F 89% 29.80 in 10.0 mi SSW 11.5 mph - N/A   Overcast
8:22 AM 77.0 °F 71.6 °F 83% 29.81 in 10.0 mi SSW 10.4 mph - N/A   Overcast
8:24 AM 77.0 °F 73.4 °F 89% 29.81 in 10.0 mi SSW 12.7 mph 18.4 mph N/A   Overcast
8:31 AM 78.8 °F 71.6 °F 78% 29.81 in 10.0 mi SSW 13.8 mph 18.4 mph N/A   Overcast
8:33 AM 78.8 °F 73.4 °F 83% 29.81 in 10.0 mi SSW 13.8 mph - N/A   Overcast
8:34 AM 78.8 °F 73.4 °F 83% 29.81 in 10.0 mi SSW 13.8 mph - N/A   Overcast
8:55 AM 77.7 °F 72.0 °F 82% 29.82 in 10.0 mi East 8.1 mph - N/A   Overcast
8:56 AM 77.0 °F 71.6 °F 83% 29.83 in 10.0 mi East 8.1 mph - N/A   Light Drizzle
8:58 AM 77.0 °F 71.6 °F 83% 29.82 in 6.0 mi East 8.1 mph - N/A Rain Rain
9:00 AM 73.4 °F 68.0 °F 83% 29.82 in 7.0 mi East 13.8 mph - N/A Rain Light Rain
9:16 AM 69.8 °F 68.0 °F 94% 29.84 in 10.0 mi NE 8.1 mph - N/A   Overcast
9:40 AM 68.0 °F 66.2 °F 94% 29.82 in 10.0 mi North 8.1 mph - N/A Rain Light Rain
9:46 AM 68.0 °F 68.0 °F 100% 29.80 in 3.0 mi NNE 9.2 mph - N/A Rain Rain
9:58 AM 68.0 °F 66.2 °F 94% 29.84 in 6.0 mi NE 10.4 mph - N/A Rain Light Rain
10:16 AM 66.2 °F 66.2 °F 100% 29.84 in 2.0 mi ESE 4.6 mph - N/A Rain Heavy Rain
10:19 AM 66.2 °F 66.2 °F 100% 29.84 in 1.5 mi Variable 4.6 mph - N/A Rain Heavy Rain
10:26 AM 66.2 °F 66.2 °F 100% 29.83 in 3.0 mi NNE 9.2 mph - N/A Rain Rain
10:57 AM 66.2 °F 66.2 °F 100% 29.83 in 0.5 mi Variable 5.8 mph - N/A Rain , Thunderstorm Heavy Thunderstorms and Rain
11:20 AM 66.2 °F 66.2 °F 100% 29.85 in 2.0 mi NNE 11.5 mph - N/A Rain , Thunderstorm Thunderstorms and Rain
11:39 AM 66.2 °F 66.2 °F 100% 29.85 in 3.0 mi ENE 8.1 mph - N/A Rain Light Rain
11:59 AM 66.2 °F 66.2 °F 100% 29.83 in 3.0 mi ENE 9.2 mph - N/A Rain Light Rain
12:58 PM 66.2 °F 66.2 °F 100% 29.84 in 6.0 mi East 3.5 mph - N/A Rain Light Rain
1:37 PM 68.0 °F 68.0 °F 100% 29.81 in 10.0 mi East 11.5 mph - N/A Rain Light Rain
1:55 PM 67.6 °F 67.6 °F 100% 29.81 in 10.0 mi ENE 9.2 mph - 0.01 in   Light Drizzle
1:57 PM 68.0 °F 68.0 °F 100% 29.81 in 10.0 mi ENE 5.8 mph - N/A   Overcast
1:59 PM 68.0 °F 68.0 °F 100% 29.81 in 10.0 mi NE 6.9 mph - N/A   Overcast
2:08 PM 68.0 °F 68.0 °F 100% 29.81 in 10.0 mi ENE 6.9 mph - N/A   Overcast
2:55 PM 69.3 °F 69.1 °F 99% 29.82 in 10.0 mi NNW 3.5 mph - 0.00 in   Overcast
2:59 PM 69.8 °F 69.8 °F 100% 29.82 in 10.0 mi Calm Calm - N/A   Overcast
3:37 PM 69.8 °F 69.8 °F 100% 29.83 in 10.0 mi North 3.5 mph - N/A   Overcast
3:55 PM 70.5 °F 69.3 °F 96% 29.82 in 10.0 mi NE 3.5 mph - 0.01 in   Overcast
4:17 PM 71.6 °F 69.8 °F 94% 29.81 in 10.0 mi NE 3.5 mph - N/A   Light Drizzle
4:35 PM 71.6 °F 69.8 °F 94% 29.81 in 10.0 mi NNE 4.6 mph - N/A   Overcast
4:37 PM 71.6 °F 69.8 °F 94% 29.81 in 10.0 mi NNE 3.5 mph - N/A   Light Drizzle
4:41 PM 71.6 °F 69.8 °F 94% 29.81 in 10.0 mi NNE 3.5 mph - N/A   Mostly Cloudy
4:43 PM 71.6 °F 69.8 °F 94% 29.80 in 10.0 mi NE 3.5 mph - N/A   Mostly Cloudy
4:52 PM 71.6 °F 69.8 °F 94% 29.80 in 10.0 mi NNE 5.8 mph - N/A   Mostly Cloudy
4:55 PM 72.1 °F 69.8 °F 92% 29.80 in 10.0 mi NNE 6.9 mph - 0.00 in   Mostly Cloudy
4:57 PM 71.6 °F 69.8 °F 94% 29.80 in 10.0 mi North 6.9 mph - N/A   Mostly Cloudy
4:58 PM 71.6 °F 69.8 °F 94% 29.80 in 10.0 mi North 6.9 mph - N/A   Mostly Cloudy
5:05 PM 73.4 °F 69.8 °F 88% 29.80 in 10.0 mi North 4.6 mph - N/A   Mostly Cloudy
5:28 PM 71.6 °F 69.8 °F 94% 29.81 in 10.0 mi North 5.8 mph - N/A   Mostly Cloudy
5:55 PM 70.9 °F 69.4 °F 95% 29.81 in 10.0 mi North 4.6 mph - N/A   Scattered Clouds
6:55 PM 68.5 °F 67.8 °F 98% 29.83 in 10.0 mi Calm Calm - N/A   Partly Cloudy
7:55 PM 68.5 °F 68.5 °F 100% 29.85 in 10.0 mi Calm Calm - N/A   Overcast
8:30 PM 69.8 °F 69.8 °F 100% 29.86 in 10.0 mi Calm Calm - N/A Rain Light Rain
8:38 PM 69.8 °F 69.8 °F 100% 29.86 in 10.0 mi Calm Calm - N/A   Overcast
8:55 PM 69.8 °F 69.3 °F 98% 29.87 in 10.0 mi Calm Calm - 0.00 in   Mostly Cloudy
9:55 PM 67.3 °F 67.3 °F 100% 29.87 in 10.0 mi North 3.5 mph - N/A   Partly Cloudy
10:55 PM 65.1 °F 65.1 °F 100% 29.88 in 10.0 mi North 3.5 mph - N/A   Clear
11:55 PM 64.0 °F 64.0 °F 100% 29.87 in 10.0 mi North 6.9 mph - N/A   Clear